JZA7891 CYQM-CYOW
Flight info
| Callsign | JZA7891 |
|---|---|
| Flight time | 1h 18m |
| Altitude | 36000 |
| Route | BEMEK DCT DERDO DCT DAXUG DCT MUTIB DCT PUPOV DCT VILRO RIVER4 |
| Aircraft | CRJ9/M-SDFGIRWY/S |
Departure
| Time | 2026-05-03 21:37 |
|---|---|
| Airport | Greater Moncton Roméo LeBlanc International Airport (CYQM) |
Arrival
| Time | 2026-05-03 22:55 |
|---|---|
| Airport | Ottawa Macdonald-Cartier International Airport (CYOW) |
| Time | Latitude | Longitude | Altitude | Speed | Heading |
|---|---|---|---|---|---|
| 2026-05-03 20:51 | 46.11558 | -64.68763 | 217 ft | 0 kts | 313° |
| 2026-05-03 21:24 | 46.11558 | -64.68762 | 217 ft | 2 kts | 313° |
| 2026-05-03 21:24 | 46.11541 | -64.68736 | 217 ft | 4 kts | 310° |
| 2026-05-03 21:25 | 46.11528 | -64.68704 | 217 ft | 4 kts | 287° |
| 2026-05-03 21:25 | 46.11528 | -64.68669 | 217 ft | 4 kts | 245° |
| 2026-05-03 21:25 | 46.11536 | -64.68655 | 217 ft | 1 kts | 222° |
| 2026-05-03 21:26 | 46.11536 | -64.68654 | 217 ft | 0 kts | 222° |
| 2026-05-03 21:29 | 46.11522 | -64.68673 | 217 ft | 7 kts | 222° |
| 2026-05-03 21:30 | 46.11498 | -64.68703 | 217 ft | 0 kts | 222° |
| 2026-05-03 21:30 | 46.11490 | -64.68714 | 217 ft | 4 kts | 219° |
| 2026-05-03 21:30 | 46.11454 | -64.68728 | 217 ft | 7 kts | 166° |
| 2026-05-03 21:31 | 46.11411 | -64.68679 | 217 ft | 9 kts | 134° |
| 2026-05-03 21:31 | 46.11363 | -64.68602 | 217 ft | 12 kts | 130° |
| 2026-05-03 21:31 | 46.11302 | -64.68514 | 217 ft | 12 kts | 148° |
| 2026-05-03 21:31 | 46.11232 | -64.68489 | 217 ft | 10 kts | 176° |
| 2026-05-03 21:32 | 46.11164 | -64.68485 | 220 ft | 11 kts | 178° |
| 2026-05-03 21:32 | 46.11081 | -64.68480 | 222 ft | 13 kts | 178° |
| 2026-05-03 21:32 | 46.10982 | -64.68474 | 225 ft | 15 kts | 177° |
| 2026-05-03 21:32 | 46.10884 | -64.68468 | 227 ft | 13 kts | 178° |
| 2026-05-03 21:33 | 46.10796 | -64.68462 | 230 ft | 12 kts | 177° |
| 2026-05-03 21:33 | 46.10727 | -64.68481 | 231 ft | 10 kts | 228° |
| 2026-05-03 21:33 | 46.10710 | -64.68579 | 230 ft | 11 kts | 268° |
| 2026-05-03 21:33 | 46.10708 | -64.68684 | 231 ft | 10 kts | 267° |
| 2026-05-03 21:34 | 46.10705 | -64.68780 | 233 ft | 9 kts | 267° |
| 2026-05-03 21:34 | 46.10702 | -64.68879 | 232 ft | 11 kts | 268° |
| 2026-05-03 21:34 | 46.10699 | -64.69005 | 230 ft | 14 kts | 268° |
| 2026-05-03 21:34 | 46.10695 | -64.69120 | 230 ft | 10 kts | 267° |
| 2026-05-03 21:35 | 46.10692 | -64.69205 | 231 ft | 7 kts | 267° |
| 2026-05-03 21:35 | 46.10692 | -64.69258 | 232 ft | 2 kts | 292° |
| 2026-05-03 21:35 | 46.10706 | -64.69270 | 232 ft | 4 kts | 352° |
| 2026-05-03 21:35 | 46.10738 | -64.69254 | 232 ft | 4 kts | 39° |
| 2026-05-03 21:36 | 46.10739 | -64.69253 | 232 ft | 0 kts | 39° |
| 2026-05-03 21:36 | 46.10751 | -64.69239 | 232 ft | 11 kts | 39° |
| 2026-05-03 21:36 | 46.10915 | -64.69023 | 229 ft | 62 kts | 43° |
| 2026-05-03 21:37 | 46.11393 | -64.68380 | 220 ft | 122 kts | 42° |
| 2026-05-03 21:37 | 46.12118 | -64.67422 | 330 ft | 156 kts | 42° |
| 2026-05-03 21:37 | 46.12892 | -64.66316 | 1037 ft | 152 kts | 48° |
| 2026-05-03 21:37 | 46.13370 | -64.64962 | 1805 ft | 156 kts | 68° |
| 2026-05-03 21:38 | 46.13577 | -64.63445 | 2315 ft | 167 kts | 78° |
| 2026-05-03 21:38 | 46.13561 | -64.61826 | 3114 ft | 164 kts | 96° |
| 2026-05-03 21:38 | 46.13001 | -64.60218 | 3561 ft | 195 kts | 119° |
| 2026-05-03 21:38 | 46.12321 | -64.58594 | 4337 ft | 191 kts | 106° |
| 2026-05-03 21:39 | 46.11788 | -64.56706 | 4606 ft | 219 kts | 105° |
| 2026-05-03 21:39 | 46.11257 | -64.54625 | 5284 ft | 227 kts | 104° |
| 2026-05-03 21:39 | 46.10744 | -64.52497 | 6170 ft | 223 kts | 105° |
| 2026-05-03 21:39 | 46.10243 | -64.50370 | 6928 ft | 225 kts | 105° |
| 2026-05-03 21:40 | 46.09771 | -64.48226 | 7709 ft | 225 kts | 105° |
| 2026-05-03 21:40 | 46.08992 | -64.46269 | 8402 ft | 236 kts | 136° |
| 2026-05-03 21:40 | 46.07405 | -64.45442 | 9130 ft | 260 kts | 171° |
| 2026-05-03 21:40 | 46.05589 | -64.46187 | 9820 ft | 289 kts | 205° |
| 2026-05-03 21:41 | 46.04208 | -64.48351 | 10695 ft | 303 kts | 238° |
| 2026-05-03 21:41 | 46.03699 | -64.51316 | 11595 ft | 309 kts | 261° |
| 2026-05-03 21:41 | 46.03613 | -64.54382 | 12489 ft | 304 kts | 263° |
| 2026-05-03 21:41 | 46.03593 | -64.57416 | 13254 ft | 304 kts | 264° |
| 2026-05-03 21:42 | 46.03620 | -64.60432 | 13913 ft | 307 kts | 265° |
| 2026-05-03 21:42 | 46.03655 | -64.63520 | 14551 ft | 310 kts | 265° |
| 2026-05-03 21:42 | 46.03698 | -64.66633 | 15167 ft | 313 kts | 265° |
| 2026-05-03 21:42 | 46.03742 | -64.69772 | 15794 ft | 315 kts | 265° |
| 2026-05-03 21:43 | 46.03789 | -64.72939 | 16409 ft | 317 kts | 265° |
| 2026-05-03 21:43 | 46.03836 | -64.76124 | 16965 ft | 322 kts | 265° |
| 2026-05-03 21:43 | 46.03884 | -64.79462 | 16977 ft | 345 kts | 265° |
| 2026-05-03 21:43 | 46.03938 | -64.83017 | 17017 ft | 366 kts | 266° |
| 2026-05-03 21:44 | 46.03998 | -64.86769 | 17106 ft | 384 kts | 266° |
| 2026-05-03 21:44 | 46.04062 | -64.90645 | 17158 ft | 402 kts | 266° |
| 2026-05-03 21:44 | 46.04132 | -64.94752 | 17230 ft | 418 kts | 267° |
| 2026-05-03 21:44 | 46.04208 | -64.98957 | 17714 ft | 421 kts | 267° |
| 2026-05-03 21:45 | 46.04285 | -65.03182 | 18230 ft | 424 kts | 267° |
| 2026-05-03 21:45 | 46.04364 | -65.07443 | 18720 ft | 427 kts | 267° |
| 2026-05-03 21:45 | 46.04443 | -65.11726 | 19177 ft | 430 kts | 267° |
| 2026-05-03 21:45 | 46.04522 | -65.16047 | 19614 ft | 433 kts | 267° |
| 2026-05-03 21:46 | 46.04605 | -65.20400 | 20040 ft | 436 kts | 267° |
| 2026-05-03 21:46 | 46.04688 | -65.24725 | 20423 ft | 440 kts | 267° |
| 2026-05-03 21:46 | 46.04772 | -65.29142 | 20801 ft | 443 kts | 267° |
| 2026-05-03 21:46 | 46.04857 | -65.33591 | 21176 ft | 446 kts | 267° |
| 2026-05-03 21:47 | 46.04942 | -65.38072 | 21532 ft | 449 kts | 267° |
| 2026-05-03 21:47 | 46.05030 | -65.42584 | 21861 ft | 453 kts | 267° |
| 2026-05-03 21:47 | 46.05117 | -65.47133 | 22195 ft | 456 kts | 267° |
| 2026-05-03 21:47 | 46.05208 | -65.51713 | 22503 ft | 459 kts | 267° |
| 2026-05-03 21:48 | 46.05299 | -65.56319 | 22816 ft | 462 kts | 267° |
| 2026-05-03 21:48 | 46.05389 | -65.60971 | 23099 ft | 466 kts | 267° |
| 2026-05-03 21:48 | 46.05483 | -65.65649 | 23380 ft | 469 kts | 267° |
| 2026-05-03 21:48 | 46.05579 | -65.70286 | 23644 ft | 472 kts | 267° |
| 2026-05-03 21:49 | 46.05679 | -65.75023 | 23940 ft | 475 kts | 267° |
| 2026-05-03 21:49 | 46.05780 | -65.79785 | 24184 ft | 478 kts | 267° |
| 2026-05-03 21:49 | 46.05889 | -65.84585 | 24464 ft | 480 kts | 267° |
| 2026-05-03 21:49 | 46.05995 | -65.89404 | 24731 ft | 482 kts | 267° |
| 2026-05-03 21:50 | 46.06093 | -65.94240 | 24991 ft | 484 kts | 267° |
| 2026-05-03 21:50 | 46.06191 | -65.99093 | 25278 ft | 485 kts | 267° |
| 2026-05-03 21:50 | 46.06293 | -66.03951 | 25618 ft | 485 kts | 267° |
| 2026-05-03 21:50 | 46.06402 | -66.08726 | 25957 ft | 484 kts | 267° |
| 2026-05-03 21:51 | 46.06519 | -66.13570 | 26277 ft | 484 kts | 267° |
| 2026-05-03 21:51 | 46.06642 | -66.18410 | 26607 ft | 484 kts | 267° |
| 2026-05-03 21:51 | 46.06774 | -66.23235 | 26951 ft | 482 kts | 267° |
| 2026-05-03 21:51 | 46.06919 | -66.28063 | 27261 ft | 482 kts | 267° |
| 2026-05-03 21:52 | 46.07078 | -66.32878 | 27601 ft | 481 kts | 267° |
| 2026-05-03 21:52 | 46.07257 | -66.37690 | 27900 ft | 480 kts | 267° |
| 2026-05-03 21:52 | 46.07466 | -66.42491 | 28177 ft | 481 kts | 268° |
| 2026-05-03 21:52 | 46.07795 | -66.47226 | 28434 ft | 486 kts | 275° |
| 2026-05-03 21:53 | 46.08618 | -66.51962 | 28697 ft | 487 kts | 277° |
| 2026-05-03 21:53 | 46.08979 | -66.56754 | 28898 ft | 476 kts | 263° |
| 2026-05-03 21:53 | 46.08603 | -66.61409 | 29160 ft | 462 kts | 249° |
| 2026-05-03 21:53 | 46.07625 | -66.65754 | 29480 ft | 453 kts | 243° |
| 2026-05-03 21:54 | 46.06625 | -66.70070 | 29732 ft | 457 kts | 248° |
| 2026-05-03 21:54 | 46.05964 | -66.74576 | 29999 ft | 464 kts | 255° |
| 2026-05-03 21:54 | 46.05624 | -66.79212 | 30246 ft | 466 kts | 258° |
| 2026-05-03 21:54 | 46.05376 | -66.83862 | 30502 ft | 466 kts | 258° |
| 2026-05-03 21:55 | 46.05112 | -66.88431 | 30782 ft | 463 kts | 258° |
| 2026-05-03 21:55 | 46.04775 | -66.93018 | 31087 ft | 459 kts | 256° |
| 2026-05-03 21:55 | 46.04414 | -66.97581 | 31300 ft | 459 kts | 257° |
| 2026-05-03 21:55 | 46.04059 | -67.02141 | 31591 ft | 457 kts | 257° |
| 2026-05-03 21:56 | 46.03707 | -67.06677 | 31848 ft | 455 kts | 257° |
| 2026-05-03 21:56 | 46.03351 | -67.11196 | 32094 ft | 454 kts | 257° |
| 2026-05-03 21:56 | 46.02993 | -67.15699 | 32302 ft | 453 kts | 257° |
| 2026-05-03 21:56 | 46.02637 | -67.20203 | 32519 ft | 452 kts | 257° |
| 2026-05-03 21:57 | 46.02281 | -67.24691 | 32762 ft | 451 kts | 257° |
| 2026-05-03 21:57 | 46.01926 | -67.29102 | 32986 ft | 450 kts | 257° |
| 2026-05-03 21:57 | 46.01565 | -67.33564 | 33213 ft | 448 kts | 257° |
| 2026-05-03 21:57 | 46.01205 | -67.38009 | 33432 ft | 447 kts | 257° |
| 2026-05-03 21:58 | 46.00845 | -67.42450 | 33628 ft | 447 kts | 257° |
| 2026-05-03 21:58 | 46.00483 | -67.46880 | 33828 ft | 446 kts | 257° |
| 2026-05-03 21:58 | 46.00117 | -67.51304 | 34024 ft | 445 kts | 258° |
| 2026-05-03 21:58 | 45.99752 | -67.55715 | 34247 ft | 444 kts | 258° |
| 2026-05-03 21:59 | 45.99386 | -67.60116 | 34438 ft | 443 kts | 258° |
| 2026-05-03 21:59 | 45.99025 | -67.64455 | 34603 ft | 443 kts | 258° |
| 2026-05-03 21:59 | 45.98658 | -67.68847 | 34781 ft | 443 kts | 258° |
| 2026-05-03 21:59 | 45.98292 | -67.73237 | 34951 ft | 443 kts | 258° |
| 2026-05-03 22:00 | 45.97921 | -67.77626 | 35104 ft | 442 kts | 258° |
| 2026-05-03 22:00 | 45.97548 | -67.82013 | 35279 ft | 442 kts | 258° |
| 2026-05-03 22:00 | 45.97175 | -67.86394 | 35463 ft | 441 kts | 258° |
| 2026-05-03 22:00 | 45.96801 | -67.90771 | 35568 ft | 442 kts | 258° |
| 2026-05-03 22:01 | 45.96038 | -67.99585 | 35640 ft | 447 kts | 258° |
| 2026-05-03 22:01 | 45.95273 | -68.08372 | 35664 ft | 445 kts | 258° |
| 2026-05-03 22:02 | 45.94495 | -68.17172 | 35658 ft | 443 kts | 258° |
| 2026-05-03 22:02 | 45.93719 | -68.25923 | 35654 ft | 440 kts | 258° |
| 2026-05-03 22:03 | 45.92939 | -68.34625 | 35660 ft | 438 kts | 258° |
| 2026-05-03 22:03 | 45.92162 | -68.43222 | 35667 ft | 436 kts | 258° |
| 2026-05-03 22:04 | 45.91378 | -68.51827 | 35677 ft | 434 kts | 258° |
| 2026-05-03 22:04 | 45.90586 | -68.60393 | 35680 ft | 432 kts | 258° |
| 2026-05-03 22:05 | 45.89787 | -68.68919 | 35681 ft | 430 kts | 258° |
| 2026-05-03 22:05 | 45.89006 | -68.77349 | 35682 ft | 428 kts | 258° |
| 2026-05-03 22:06 | 45.88208 | -68.85805 | 35686 ft | 427 kts | 258° |
| 2026-05-03 22:06 | 45.87408 | -68.94228 | 35693 ft | 425 kts | 258° |
| 2026-05-03 22:07 | 45.86604 | -69.02617 | 35687 ft | 424 kts | 258° |
| 2026-05-03 22:07 | 45.85801 | -69.10913 | 35673 ft | 423 kts | 258° |
| 2026-05-03 22:08 | 45.84992 | -69.19261 | 35679 ft | 423 kts | 258° |
| 2026-05-03 22:08 | 45.84171 | -69.27613 | 35680 ft | 422 kts | 258° |
| 2026-05-03 22:09 | 45.83347 | -69.35951 | 35676 ft | 423 kts | 258° |
| 2026-05-03 22:10 | 45.82108 | -69.48391 | 35677 ft | 422 kts | 258° |
| 2026-05-03 22:10 | 45.81268 | -69.56724 | 35681 ft | 422 kts | 258° |
| 2026-05-03 22:11 | 45.80419 | -69.65056 | 35669 ft | 423 kts | 258° |
| 2026-05-03 22:11 | 45.79565 | -69.73413 | 35668 ft | 425 kts | 258° |
| 2026-05-03 22:12 | 45.78702 | -69.81748 | 35676 ft | 427 kts | 258° |
| 2026-05-03 22:12 | 45.77830 | -69.90161 | 35677 ft | 427 kts | 258° |
| 2026-05-03 22:13 | 45.76955 | -69.98571 | 35676 ft | 427 kts | 257° |
| 2026-05-03 22:13 | 45.76073 | -70.06963 | 35683 ft | 426 kts | 258° |
| 2026-05-03 22:14 | 45.75178 | -70.15358 | 35695 ft | 427 kts | 258° |
| 2026-05-03 22:14 | 45.74289 | -70.23713 | 35696 ft | 427 kts | 258° |
| 2026-05-03 22:15 | 45.73384 | -70.32107 | 35699 ft | 426 kts | 258° |
| 2026-05-03 22:15 | 45.72477 | -70.40468 | 35710 ft | 424 kts | 258° |
| 2026-05-03 22:16 | 45.71569 | -70.48795 | 35702 ft | 423 kts | 258° |
| 2026-05-03 22:16 | 45.70657 | -70.57089 | 35708 ft | 421 kts | 258° |
| 2026-05-03 22:17 | 45.69747 | -70.65300 | 35717 ft | 421 kts | 258° |
| 2026-05-03 22:17 | 45.68830 | -70.73561 | 35719 ft | 421 kts | 258° |
| 2026-05-03 22:18 | 45.67941 | -70.81819 | 35729 ft | 420 kts | 259° |
| 2026-05-03 22:18 | 45.67347 | -70.90130 | 35740 ft | 420 kts | 263° |
| 2026-05-03 22:19 | 45.66865 | -70.98391 | 35755 ft | 420 kts | 262° |
| 2026-05-03 22:19 | 45.66349 | -71.06699 | 35766 ft | 420 kts | 262° |
| 2026-05-03 22:20 | 45.65792 | -71.15001 | 35781 ft | 420 kts | 262° |
| 2026-05-03 22:20 | 45.65241 | -71.23305 | 35783 ft | 420 kts | 262° |
| 2026-05-03 22:21 | 45.64690 | -71.31559 | 35787 ft | 420 kts | 262° |
| 2026-05-03 22:21 | 45.64128 | -71.39867 | 35793 ft | 420 kts | 262° |
| 2026-05-03 22:22 | 45.63556 | -71.48186 | 35794 ft | 421 kts | 262° |
| 2026-05-03 22:22 | 45.62981 | -71.56507 | 35798 ft | 421 kts | 262° |
| 2026-05-03 22:23 | 45.62398 | -71.64835 | 35804 ft | 421 kts | 262° |
| 2026-05-03 22:23 | 45.61814 | -71.73103 | 35804 ft | 422 kts | 262° |
| 2026-05-03 22:24 | 45.61218 | -71.81438 | 35804 ft | 422 kts | 262° |
| 2026-05-03 22:24 | 45.60617 | -71.89773 | 35805 ft | 422 kts | 262° |
| 2026-05-03 22:25 | 45.60008 | -71.98115 | 35807 ft | 422 kts | 262° |
| 2026-05-03 22:25 | 45.59391 | -72.06460 | 35804 ft | 423 kts | 262° |
| 2026-05-03 22:26 | 45.58775 | -72.14748 | 35804 ft | 423 kts | 262° |
| 2026-05-03 22:26 | 45.58148 | -72.23103 | 35803 ft | 423 kts | 262° |
| 2026-05-03 22:27 | 45.57583 | -72.31464 | 35799 ft | 424 kts | 268° |
| 2026-05-03 22:27 | 45.57934 | -72.39881 | 35807 ft | 426 kts | 275° |
| 2026-05-03 22:28 | 45.58914 | -72.48182 | 35813 ft | 427 kts | 278° |
| 2026-05-03 22:28 | 45.59950 | -72.56535 | 35813 ft | 427 kts | 277° |
| 2026-05-03 22:29 | 45.60890 | -72.64907 | 35810 ft | 427 kts | 277° |
| 2026-05-03 22:29 | 45.61635 | -72.73317 | 35804 ft | 426 kts | 271° |
| 2026-05-03 22:30 | 45.61708 | -72.81766 | 35805 ft | 425 kts | 268° |
| 2026-05-03 22:30 | 45.61630 | -72.90150 | 35822 ft | 425 kts | 268° |
| 2026-05-03 22:30 | 45.61643 | -72.94431 | 35303 ft | 436 kts | 269° |
| 2026-05-03 22:31 | 45.61657 | -72.98763 | 34788 ft | 435 kts | 269° |
| 2026-05-03 22:31 | 45.61669 | -73.03074 | 34272 ft | 433 kts | 269° |
| 2026-05-03 22:31 | 45.61679 | -73.07365 | 33753 ft | 431 kts | 269° |
| 2026-05-03 22:31 | 45.61689 | -73.11639 | 33233 ft | 429 kts | 269° |
| 2026-05-03 22:32 | 45.61695 | -73.15890 | 32712 ft | 427 kts | 269° |
| 2026-05-03 22:32 | 45.61703 | -73.20068 | 32199 ft | 426 kts | 269° |
| 2026-05-03 22:32 | 45.61706 | -73.24290 | 31664 ft | 424 kts | 269° |
| 2026-05-03 22:32 | 45.61707 | -73.28497 | 31158 ft | 423 kts | 269° |
| 2026-05-03 22:33 | 45.61711 | -73.32696 | 30636 ft | 421 kts | 270° |
| 2026-05-03 22:33 | 45.61709 | -73.36869 | 30119 ft | 420 kts | 270° |
| 2026-05-03 22:33 | 45.61707 | -73.41026 | 29595 ft | 418 kts | 270° |
| 2026-05-03 22:33 | 45.61702 | -73.45180 | 29074 ft | 420 kts | 270° |
| 2026-05-03 22:34 | 45.61708 | -73.49392 | 28603 ft | 426 kts | 270° |
| 2026-05-03 22:34 | 45.61713 | -73.53617 | 28362 ft | 426 kts | 271° |
| 2026-05-03 22:34 | 45.61728 | -73.57821 | 27869 ft | 431 kts | 271° |
| 2026-05-03 22:34 | 45.61722 | -73.62101 | 27342 ft | 431 kts | 271° |
| 2026-05-03 22:35 | 45.61704 | -73.66358 | 26798 ft | 425 kts | 271° |
| 2026-05-03 22:35 | 45.61674 | -73.70545 | 26248 ft | 418 kts | 271° |
| 2026-05-03 22:35 | 45.61645 | -73.74664 | 25705 ft | 410 kts | 271° |
| 2026-05-03 22:35 | 45.61624 | -73.78686 | 25153 ft | 400 kts | 271° |
| 2026-05-03 22:36 | 45.61601 | -73.82618 | 24626 ft | 391 kts | 272° |
| 2026-05-03 22:36 | 45.61583 | -73.86439 | 24123 ft | 388 kts | 272° |
| 2026-05-03 22:36 | 45.61566 | -73.90330 | 23622 ft | 385 kts | 273° |
| 2026-05-03 22:36 | 45.61550 | -73.94091 | 23152 ft | 384 kts | 272° |
| 2026-05-03 22:37 | 45.61530 | -73.97892 | 22678 ft | 382 kts | 272° |
| 2026-05-03 22:37 | 45.61520 | -74.01682 | 22201 ft | 381 kts | 273° |
| 2026-05-03 22:37 | 45.61505 | -74.05453 | 21730 ft | 379 kts | 272° |
| 2026-05-03 22:37 | 45.61478 | -74.09207 | 21255 ft | 376 kts | 272° |
| 2026-05-03 22:38 | 45.61441 | -74.12909 | 20781 ft | 370 kts | 272° |
| 2026-05-03 22:38 | 45.61401 | -74.16561 | 20304 ft | 366 kts | 272° |
| 2026-05-03 22:38 | 45.61363 | -74.20172 | 19825 ft | 362 kts | 272° |
| 2026-05-03 22:38 | 45.61328 | -74.23700 | 19362 ft | 358 kts | 272° |
| 2026-05-03 22:39 | 45.61292 | -74.27225 | 18909 ft | 352 kts | 271° |
| 2026-05-03 22:39 | 45.61254 | -74.30688 | 18455 ft | 345 kts | 271° |
| 2026-05-03 22:39 | 45.61216 | -74.34080 | 17996 ft | 338 kts | 271° |
| 2026-05-03 22:39 | 45.61178 | -74.37394 | 17557 ft | 330 kts | 271° |
| 2026-05-03 22:40 | 45.61138 | -74.40645 | 17119 ft | 325 kts | 271° |
| 2026-05-03 22:40 | 45.61101 | -74.43845 | 16713 ft | 320 kts | 271° |
| 2026-05-03 22:40 | 45.61063 | -74.47027 | 16309 ft | 321 kts | 271° |
| 2026-05-03 22:40 | 45.60985 | -74.50178 | 15913 ft | 322 kts | 268° |
| 2026-05-03 22:41 | 45.60702 | -74.53363 | 15513 ft | 324 kts | 263° |
| 2026-05-03 22:41 | 45.60279 | -74.56497 | 15116 ft | 320 kts | 261° |
| 2026-05-03 22:41 | 45.59827 | -74.59594 | 14718 ft | 317 kts | 261° |
| 2026-05-03 22:41 | 45.59380 | -74.62661 | 14322 ft | 314 kts | 261° |
| 2026-05-03 22:42 | 45.58961 | -74.65694 | 13948 ft | 309 kts | 262° |
| 2026-05-03 22:42 | 45.58564 | -74.68687 | 13567 ft | 305 kts | 262° |
| 2026-05-03 22:42 | 45.58177 | -74.71644 | 13192 ft | 301 kts | 262° |
| 2026-05-03 22:42 | 45.57795 | -74.74539 | 12809 ft | 293 kts | 262° |
| 2026-05-03 22:43 | 45.57429 | -74.77320 | 12453 ft | 285 kts | 262° |
| 2026-05-03 22:43 | 45.57071 | -74.80069 | 12091 ft | 278 kts | 262° |
| 2026-05-03 22:43 | 45.56714 | -74.82748 | 11755 ft | 272 kts | 262° |
| 2026-05-03 22:43 | 45.56370 | -74.85370 | 11421 ft | 266 kts | 262° |
| 2026-05-03 22:44 | 45.56027 | -74.87963 | 11091 ft | 266 kts | 262° |
| 2026-05-03 22:44 | 45.55664 | -74.90543 | 10766 ft | 265 kts | 259° |
| 2026-05-03 22:44 | 45.55149 | -74.93074 | 10441 ft | 266 kts | 254° |
| 2026-05-03 22:44 | 45.54514 | -74.95557 | 10116 ft | 266 kts | 251° |
| 2026-05-03 22:45 | 45.53829 | -74.97999 | 9796 ft | 264 kts | 250° |
| 2026-05-03 22:45 | 45.53156 | -75.00386 | 9470 ft | 261 kts | 250° |
| 2026-05-03 22:45 | 45.52485 | -75.02771 | 9138 ft | 257 kts | 250° |
| 2026-05-03 22:45 | 45.51832 | -75.05112 | 8817 ft | 251 kts | 251° |
| 2026-05-03 22:46 | 45.51211 | -75.07409 | 8508 ft | 246 kts | 251° |
| 2026-05-03 22:46 | 45.50607 | -75.09645 | 8233 ft | 237 kts | 251° |
| 2026-05-03 22:46 | 45.50023 | -75.11813 | 7952 ft | 232 kts | 251° |
| 2026-05-03 22:46 | 45.49448 | -75.13941 | 7683 ft | 228 kts | 251° |
| 2026-05-03 22:47 | 45.48885 | -75.16028 | 7408 ft | 224 kts | 251° |
| 2026-05-03 22:47 | 45.48342 | -75.18050 | 7128 ft | 220 kts | 251° |
| 2026-05-03 22:47 | 45.47797 | -75.20071 | 6852 ft | 217 kts | 251° |
| 2026-05-03 22:47 | 45.47263 | -75.22042 | 6573 ft | 214 kts | 251° |
| 2026-05-03 22:48 | 45.46724 | -75.24021 | 6288 ft | 211 kts | 251° |
| 2026-05-03 22:48 | 45.46200 | -75.25957 | 6013 ft | 207 kts | 251° |
| 2026-05-03 22:48 | 45.45693 | -75.27816 | 5780 ft | 197 kts | 251° |
| 2026-05-03 22:48 | 45.45207 | -75.29614 | 5534 ft | 194 kts | 251° |
| 2026-05-03 22:49 | 45.44724 | -75.31398 | 5312 ft | 192 kts | 251° |
| 2026-05-03 22:49 | 45.44252 | -75.33145 | 5092 ft | 191 kts | 251° |
| 2026-05-03 22:49 | 45.43786 | -75.34905 | 4868 ft | 190 kts | 251° |
| 2026-05-03 22:49 | 45.43315 | -75.36679 | 4648 ft | 193 kts | 251° |
| 2026-05-03 22:50 | 45.42837 | -75.38488 | 4407 ft | 197 kts | 251° |
| 2026-05-03 22:50 | 45.42358 | -75.40276 | 4165 ft | 187 kts | 251° |
| 2026-05-03 22:50 | 45.41903 | -75.41932 | 3949 ft | 175 kts | 250° |
| 2026-05-03 22:50 | 45.41463 | -75.43507 | 3719 ft | 168 kts | 250° |
| 2026-05-03 22:51 | 45.41033 | -75.45048 | 3485 ft | 169 kts | 250° |
| 2026-05-03 22:51 | 45.40554 | -75.46578 | 3280 ft | 169 kts | 244° |
| 2026-05-03 22:51 | 45.39976 | -75.48006 | 3119 ft | 167 kts | 240° |
| 2026-05-03 22:51 | 45.39369 | -75.49348 | 3063 ft | 160 kts | 238° |
| 2026-05-03 22:52 | 45.38742 | -75.50697 | 2802 ft | 164 kts | 238° |
| 2026-05-03 22:52 | 45.38150 | -75.51982 | 2515 ft | 149 kts | 239° |
| 2026-05-03 22:52 | 45.37609 | -75.53196 | 2227 ft | 141 kts | 239° |
| 2026-05-03 22:52 | 45.37113 | -75.54365 | 2012 ft | 143 kts | 238° |
| 2026-05-03 22:53 | 45.36560 | -75.55562 | 1854 ft | 143 kts | 235° |
| 2026-05-03 22:53 | 45.36001 | -75.56717 | 1682 ft | 141 kts | 235° |
| 2026-05-03 22:53 | 45.35476 | -75.57856 | 1510 ft | 139 kts | 237° |
| 2026-05-03 22:53 | 45.34977 | -75.59017 | 1324 ft | 136 kts | 236° |
| 2026-05-03 22:54 | 45.34483 | -75.60116 | 1216 ft | 128 kts | 237° |
| 2026-05-03 22:54 | 45.33996 | -75.61213 | 998 ft | 135 kts | 236° |
| 2026-05-03 22:54 | 45.33473 | -75.62353 | 801 ft | 139 kts | 236° |
| 2026-05-03 22:54 | 45.32965 | -75.63513 | 615 ft | 136 kts | 237° |
| 2026-05-03 22:55 | 45.32456 | -75.64629 | 392 ft | 133 kts | 237° |
| 2026-05-03 22:55 | 45.32023 | -75.65595 | 367 ft | 91 kts | 237° |
| 2026-05-03 22:55 | 45.31778 | -75.66133 | 371 ft | 38 kts | 238° |
| 2026-05-03 22:55 | 45.31733 | -75.66273 | 371 ft | 10 kts | 277° |
| 2026-05-03 22:56 | 45.31767 | -75.66357 | 374 ft | 10 kts | 306° |
| 2026-05-03 22:56 | 45.31790 | -75.66401 | 375 ft | 6 kts | 306° |
| 2026-05-03 22:56 | 45.31831 | -75.66464 | 375 ft | 12 kts | 332° |
| 2026-05-03 22:56 | 45.31904 | -75.66517 | 375 ft | 11 kts | 312° |
| 2026-05-03 22:57 | 45.31946 | -75.66597 | 375 ft | 9 kts | 305° |
| 2026-05-03 22:57 | 45.31983 | -75.66669 | 375 ft | 9 kts | 306° |
| 2026-05-03 22:57 | 45.32023 | -75.66746 | 375 ft | 10 kts | 306° |
| 2026-05-03 22:57 | 45.32057 | -75.66813 | 375 ft | 8 kts | 306° |
| 2026-05-03 22:58 | 45.32082 | -75.66862 | 375 ft | 6 kts | 306° |
| 2026-05-03 22:58 | 45.32106 | -75.66908 | 375 ft | 6 kts | 306° |
| 2026-05-03 22:58 | 45.32132 | -75.66957 | 375 ft | 7 kts | 307° |
| 2026-05-03 22:58 | 45.32168 | -75.66989 | 375 ft | 6 kts | 356° |
| 2026-05-03 22:59 | 45.32204 | -75.66967 | 375 ft | 5 kts | 36° |
| 2026-05-03 22:59 | 45.32220 | -75.66950 | 375 ft | 3 kts | 36° |
| 2026-05-03 22:59 | 45.32233 | -75.66937 | 375 ft | 0 kts | 36° |